Time;durP1;ratioP1;P1;durP2;ratioP2;P2;SDS_P1;SDS_P2;PMS_P1;PMS_P2;Temp;Humidity;BMP_temperature;BMP_pressure;BME280_temperature;BME280_humidity;BME280_pressure;Samples;Min_cycle;Max_cycle;Signal;HPM_P1;HPM_P2
2023/09/13 00:01:45;;;;;;;13.80;3.22;;;18.70;99.90;;;;;;4946362;28;20079;-72
2023/09/13 00:04:11;;;;;;;14.93;3.40;;;18.60;99.90;;;;;;4892016;28;109902;-71
2023/09/13 00:06:37;;;;;;;13.07;3.60;;;18.60;99.90;;;;;;4950845;28;20051;-72
2023/09/13 00:09:04;;;;;;;18.65;3.90;;;18.60;99.90;;;;;;4890965;28;170923;-72
2023/09/13 00:11:30;;;;;;;13.75;3.00;;;18.50;99.90;;;;;;4947271;28;20043;-71
2023/09/13 00:13:56;;;;;;;14.68;3.10;;;18.50;99.90;;;;;;4916249;28;61137;-72
2023/09/13 00:16:22;;;;;;;15.65;3.33;;;18.50;99.90;;;;;;4942936;28;20085;-72
2023/09/13 00:18:48;;;;;;;13.45;2.90;;;18.40;99.90;;;;;;4910850;28;278772;-73
2023/09/13 00:21:14;;;;;;;15.30;3.22;;;18.50;99.90;;;;;;4945465;28;21768;-71
2023/09/13 00:23:40;;;;;;;13.48;3.15;;;18.50;99.90;;;;;;4904891;28;189950;-72
2023/09/13 00:26:06;;;;;;;14.23;2.83;;;18.40;99.90;;;;;;4940664;28;20054;-72
2023/09/13 00:28:32;;;;;;;13.05;2.85;;;18.40;99.90;;;;;;4924396;28;20552;-73
2023/09/13 00:30:59;;;;;;;12.68;2.95;;;18.40;99.90;;;;;;4943028;28;20059;-72
2023/09/13 00:33:25;;;;;;;16.25;2.70;;;18.40;99.90;;;;;;4905528;28;116100;-72
2023/09/13 00:35:57;;;;;;;11.73;2.60;;;18.30;99.90;;;;;;4956494;28;20039;-72
2023/09/13 00:38:24;;;;;;;11.95;2.78;;;18.40;99.90;;;;;;4902021;28;172846;-72
2023/09/13 00:40:51;;;;;;;14.70;2.60;;;18.30;99.90;;;;;;4945818;28;20047;-71
2023/09/13 00:43:18;;;;;;;13.70;2.83;;;18.30;99.90;;;;;;4909991;28;20457;-72
2023/09/13 00:45:46;;;;;;;14.43;2.88;;;18.30;99.90;;;;;;4952043;28;20564;-72
2023/09/13 00:48:13;;;;;;;14.15;3.10;;;18.20;99.90;;;;;;4908090;28;20510;-72
2023/09/13 00:50:40;;;;;;;12.90;3.30;;;18.20;99.90;;;;;;4946377;28;20132;-72
2023/09/13 00:53:06;;;;;;;14.38;2.83;;;18.20;99.90;;;;;;4896037;28;70215;-72
2023/09/13 00:55:33;;;;;;;13.48;2.80;;;18.20;99.90;;;;;;4937842;28;20055;-72
2023/09/13 00:58:00;;;;;;;15.38;2.72;;;18.10;99.90;;;;;;4905382;28;146659;-71
2023/09/13 01:00:28;;;;;;;14.05;3.10;;;18.10;99.90;;;;;;4937152;28;20055;-72
2023/09/13 01:02:55;;;;;;;16.85;2.83;;;18.10;99.90;;;;;;4912368;28;55630;-71
2023/09/13 01:05:22;;;;;;;13.98;2.88;;;18.00;99.90;;;;;;4960113;28;20109;-72
2023/09/13 01:07:48;;;;;;;12.57;2.65;;;18.00;99.90;;;;;;4915724;28;94053;-70
2023/09/13 01:10:15;;;;;;;11.85;2.65;;;17.90;99.90;;;;;;4939539;28;21059;-72
2023/09/13 01:12:41;;;;;;;16.00;2.92;;;17.90;99.90;;;;;;4913243;28;20070;-72
2023/09/13 01:15:12;;;;;;;13.30;2.80;;;17.90;99.90;;;;;;4921453;28;42964;-72
2023/09/13 01:17:56;;;;;;;13.25;2.85;;;17.90;99.90;;;;;;4917562;28;20055;-73
2023/09/13 01:20:49;;;;;;;11.20;2.75;;;17.80;99.90;;;;;;4918637;28;20047;-72
2023/09/13 01:23:41;;;;;;;12.55;2.70;;;17.80;99.90;;;;;;4911193;28;20378;-71
2023/09/13 01:26:44;;;;;;;13.55;2.42;;;17.70;99.90;;;;;;4945459;28;20051;-72
2023/09/13 01:29:15;;;;;;;12.77;2.55;;;17.60;99.90;;;;;;4896564;28;81940;-71
2023/09/13 01:31:42;;;;;;;14.82;2.70;;;17.50;99.90;;;;;;4936318;28;20899;-71
2023/09/13 01:34:10;;;;;;;10.45;2.50;;;17.50;99.90;;;;;;4921964;28;40667;-73
2023/09/13 01:36:37;;;;;;;12.90;2.72;;;17.40;99.90;;;;;;4945455;28;20051;-72
2023/09/13 01:39:05;;;;;;;17.42;3.42;;;17.40;99.90;;;;;;4899883;28;220427;-73
2023/09/13 01:41:38;;;;;;;12.35;2.65;;;17.40;99.90;;;;;;4949472;28;20063;-71
2023/09/13 01:44:05;;;;;;;11.00;2.75;;;17.40;99.90;;;;;;4903828;28;257579;-72
2023/09/13 01:46:35;;;;;;;14.15;2.92;;;17.40;99.90;;;;;;4951769;28;20070;-72
2023/09/13 01:49:03;;;;;;;16.00;2.90;;;17.30;99.90;;;;;;4893051;28;99539;-71
2023/09/13 01:51:30;;;;;;;12.40;2.60;;;17.30;99.90;;;;;;4943013;28;20047;-73
2023/09/13 01:53:56;;;;;;;13.75;2.55;;;17.30;99.90;;;;;;4874565;28;284027;-73
2023/09/13 01:56:23;;;;;;;12.52;2.50;;;17.30;99.90;;;;;;4939099;28;20070;-73
2023/09/13 01:58:49;;;;;;;12.98;2.90;;;17.30;99.90;;;;;;4880152;28;216221;-72
2023/09/13 02:01:16;;;;;;;12.18;2.55;;;17.20;99.90;;;;;;4934794;28;20071;-73
2023/09/13 02:03:43;;;;;;;13.60;2.70;;;17.20;99.90;;;;;;4827866;28;2105530;-73
2023/09/13 02:06:10;;;;;;;16.48;3.05;;;17.20;99.90;;;;;;4946890;28;20055;-72
2023/09/13 02:08:37;;;;;;;14.27;2.67;;;17.20;99.90;;;;;;4909383;28;20058;-72
2023/09/13 02:11:06;;;;;;;13.98;2.80;;;17.20;99.90;;;;;;4946714;28;20782;-72
2023/09/13 02:13:33;;;;;;;14.48;2.58;;;17.20;99.90;;;;;;4913149;28;20098;-73
2023/09/13 02:15:59;;;;;;;13.35;2.63;;;17.20;99.90;;;;;;4949833;28;20517;-72
2023/09/13 02:18:25;;;;;;;14.88;2.80;;;17.20;99.90;;;;;;4916370;28;20549;-73
2023/09/13 02:20:52;;;;;;;14.90;3.03;;;17.20;99.90;;;;;;4955801;28;20421;-72
2023/09/13 02:23:18;;;;;;;11.88;2.90;;;17.20;99.90;;;;;;4903872;28;131674;-72
2023/09/13 02:25:47;;;;;;;12.15;3.13;;;17.20;99.90;;;;;;4943624;28;20055;-72
2023/09/13 02:28:13;;;;;;;13.13;2.75;;;17.20;99.90;;;;;;4908666;28;20118;-73
2023/09/13 02:30:40;;;;;;;11.25;2.67;;;17.10;99.90;;;;;;4942381;28;20051;-74
2023/09/13 02:33:07;;;;;;;10.93;2.40;;;17.20;99.90;;;;;;4913786;28;20111;-72
2023/09/13 02:35:33;;;;;;;11.48;2.70;;;17.20;99.90;;;;;;4958521;28;20456;-73
2023/09/13 02:38:00;;;;;;;13.60;3.15;;;17.20;99.90;;;;;;4913021;28;20058;-73
2023/09/13 02:40:26;;;;;;;12.55;2.67;;;17.20;99.90;;;;;;4950876;28;20055;-73
2023/09/13 02:42:52;;;;;;;13.55;2.97;;;17.20;99.90;;;;;;4915645;28;20043;-72
2023/09/13 02:45:18;;;;;;;11.38;2.70;;;17.20;99.90;;;;;;4950768;28;20051;-72
2023/09/13 02:47:44;;;;;;;16.30;2.63;;;17.10;99.90;;;;;;4912233;28;20062;-71
2023/09/13 02:50:11;;;;;;;12.82;2.80;;;17.10;99.90;;;;;;4947792;28;20077;-72
2023/09/13 02:52:37;;;;;;;13.75;2.90;;;17.10;99.90;;;;;;4915288;28;20058;-72
2023/09/13 02:55:05;;;;;;;17.40;2.70;;;17.10;99.90;;;;;;4947713;28;20414;-74
2023/09/13 02:57:32;;;;;;;12.43;2.75;;;17.10;99.90;;;;;;4918493;28;20077;-72
2023/09/13 02:59:58;;;;;;;12.25;2.40;;;17.10;99.90;;;;;;4966202;28;22049;-73
2023/09/13 03:02:24;;;;;;;16.23;2.55;;;17.00;99.90;;;;;;4947823;28;20501;-71
2023/09/13 03:04:51;;;;;;;12.57;2.50;;;17.00;99.90;;;;;;4932753;28;20039;-73
2023/09/13 03:07:18;;;;;;;13.23;2.33;;;17.00;99.90;;;;;;4948690;28;20043;-71
2023/09/13 03:09:45;;;;;;;12.20;2.28;;;17.00;99.90;;;;;;4897984;28;22256;-73
2023/09/13 03:12:14;;;;;;;15.90;2.42;;;17.00;99.90;;;;;;4947999;28;20055;-71
2023/09/13 03:14:40;;;;;;;13.85;2.70;;;17.00;99.90;;;;;;4894931;28;20402;-73
2023/09/13 03:17:07;;;;;;;9.48;1.95;;;17.00;99.90;;;;;;4929200;29;20059;-72
2023/09/13 03:19:33;;;;;;;13.27;2.35;;;17.00;99.90;;;;;;4908242;28;20486;-72
2023/09/13 03:21:59;;;;;;;12.60;2.67;;;17.00;99.90;;;;;;4961541;28;20059;-73
2023/09/13 03:24:25;;;;;;;14.02;2.55;;;17.00;99.90;;;;;;4921672;28;20065;-72
2023/09/13 03:26:51;;;;;;;14.75;2.42;;;17.00;99.90;;;;;;4948795;28;20043;-71
2023/09/13 03:29:17;;;;;;;14.05;2.47;;;17.00;99.90;;;;;;4922674;28;20125;-74
2023/09/13 03:31:43;;;;;;;11.85;2.28;;;17.00;99.90;;;;;;4950709;28;20055;-73
2023/09/13 03:34:09;;;;;;;12.05;2.25;;;16.90;99.90;;;;;;4927639;28;20058;-72
2023/09/13 03:36:38;;;;;;;11.43;2.30;;;16.90;99.90;;;;;;4952874;28;20054;-72
2023/09/13 03:39:05;;;;;;;10.15;2.20;;;16.90;99.90;;;;;;4911236;28;20430;-72
2023/09/13 03:41:31;;;;;;;11.65;2.28;;;16.90;99.90;;;;;;4948843;28;20674;-72
2023/09/13 03:43:57;;;;;;;10.90;2.05;;;17.00;99.90;;;;;;4919988;28;20050;-72
2023/09/13 03:46:24;;;;;;;12.90;2.47;;;16.90;99.90;;;;;;4948426;28;20071;-74
2023/09/13 03:48:50;;;;;;;12.82;2.30;;;16.90;99.90;;;;;;4928535;28;20441;-74
2023/09/13 03:51:16;;;;;;;14.80;2.50;;;16.90;99.90;;;;;;4948963;28;20066;-73
2023/09/13 03:53:43;;;;;;;15.27;2.30;;;16.90;99.90;;;;;;4871390;29;71233;-71
2023/09/13 03:56:09;;;;;;;11.85;2.50;;;16.90;99.90;;;;;;4944227;28;20054;-73
2023/09/13 03:58:35;;;;;;;11.65;2.42;;;16.90;99.90;;;;;;4895669;28;20051;-73
2023/09/13 04:01:02;;;;;;;11.43;2.35;;;16.90;99.90;;;;;;4939193;28;20062;-74
2023/09/13 04:03:29;;;;;;;12.85;2.30;;;16.90;99.90;;;;;;4907513;28;20066;-72
2023/09/13 04:05:55;;;;;;;12.65;2.38;;;16.80;99.90;;;;;;4949003;28;20043;-73
2023/09/13 04:08:21;;;;;;;13.02;2.33;;;16.80;99.90;;;;;;4913502;28;20064;-72
2023/09/13 04:10:47;;;;;;;12.38;2.33;;;16.80;99.90;;;;;;4958445;28;20055;-73
2023/09/13 04:13:13;;;;;;;14.57;2.60;;;16.80;99.90;;;;;;4915350;28;20058;-72
2023/09/13 04:15:44;;;;;;;13.57;2.47;;;16.80;99.90;;;;;;4946189;28;20067;-72
2023/09/13 04:18:10;;;;;;;12.38;2.20;;;16.80;99.90;;;;;;4913299;28;20047;-73
2023/09/13 04:20:36;;;;;;;10.68;2.22;;;16.80;99.90;;;;;;4948721;28;21403;-74
2023/09/13 04:23:03;;;;;;;12.10;2.13;;;16.80;99.90;;;;;;4914466;28;20047;-74
2023/09/13 04:25:29;;;;;;;11.98;2.42;;;16.70;99.90;;;;;;4956897;28;20055;-73
2023/09/13 04:27:55;;;;;;;13.25;2.38;;;16.70;99.90;;;;;;4907848;28;20066;-73
2023/09/13 04:30:21;;;;;;;12.98;2.22;;;16.70;99.90;;;;;;4952601;28;20062;-73
2023/09/13 04:32:48;;;;;;;13.27;2.30;;;16.70;99.90;;;;;;4909983;28;20062;-72
2023/09/13 04:35:17;;;;;;;13.82;2.28;;;16.70;99.90;;;;;;4956301;28;20513;-74
2023/09/13 04:37:43;;;;;;;12.65;2.28;;;16.70;99.90;;;;;;4908447;28;20059;-72
2023/09/13 04:40:10;;;;;;;12.63;2.28;;;16.60;99.90;;;;;;4936091;28;20059;-69
2023/09/13 04:42:46;;;;;;;12.23;2.25;;;16.60;99.90;;;;;;4909487;28;20047;-71
2023/09/13 04:45:12;;;;;;;15.80;2.75;;;16.60;99.90;;;;;;4940868;28;20050;-71
2023/09/13 04:47:39;;;;;;;19.65;2.75;;;16.60;99.90;;;;;;4906395;28;20518;-71
2023/09/13 04:50:05;;;;;;;13.48;2.20;;;16.60;99.90;;;;;;4946403;28;20055;-71
2023/09/13 04:52:32;;;;;;;15.10;2.40;;;16.40;99.90;;;;;;4911110;28;20139;-71
2023/09/13 04:54:58;;;;;;;13.60;2.67;;;16.20;99.90;;;;;;4931757;28;130434;-74
2023/09/13 04:57:24;;;;;;;15.05;2.40;;;16.00;99.90;;;;;;4947484;28;20058;-76
2023/09/13 04:59:51;;;;;;;16.25;2.60;;;15.80;99.90;;;;;;4917168;28;20054;-75
2023/09/13 05:02:17;;;;;;;13.15;2.45;;;15.70;99.90;;;;;;4930821;28;20536;-74
2023/09/13 05:04:43;;;;;;;14.02;2.63;;;15.50;99.90;;;;;;4908059;28;20069;-75
2023/09/13 05:07:10;;;;;;;12.45;2.25;;;15.40;99.90;;;;;;4962940;28;20055;-74
2023/09/13 05:09:37;;;;;;;12.98;2.40;;;15.30;99.90;;;;;;4891471;28;20046;-73
2023/09/13 05:12:04;;;;;;;12.80;2.45;;;15.30;99.90;;;;;;4947723;28;20051;-72
2023/09/13 05:14:30;;;;;;;14.40;2.80;;;15.10;99.90;;;;;;4905031;28;20675;-72
2023/09/13 05:16:56;;;;;;;13.85;2.50;;;15.10;99.90;;;;;;4946863;28;20054;-73
2023/09/13 05:19:22;;;;;;;10.93;2.20;;;15.00;99.90;;;;;;4910537;28;20055;-73
2023/09/13 05:21:48;;;;;;;12.10;2.47;;;15.00;99.90;;;;;;4945683;28;20054;-73
2023/09/13 05:24:15;;;;;;;14.15;2.60;;;15.00;99.90;;;;;;4924676;28;21443;-73
2023/09/13 05:26:41;;;;;;;13.00;2.40;;;14.90;99.90;;;;;;4948464;28;20078;-73
2023/09/13 05:29:07;;;;;;;13.23;2.60;;;14.90;99.90;;;;;;4922416;28;20094;-73
2023/09/13 05:31:33;;;;;;;13.73;2.85;;;14.90;99.90;;;;;;4947132;28;20066;-75
2023/09/13 05:33:59;;;;;;;12.93;2.35;;;14.90;99.90;;;;;;4910327;28;20461;-73
2023/09/13 05:36:28;;;;;;;12.98;2.60;;;14.90;99.90;;;;;;4944116;28;20086;-72
2023/09/13 05:38:54;;;;;;;15.60;2.45;;;14.90;99.90;;;;;;4910395;28;20058;-71
2023/09/13 05:41:20;;;;;;;16.98;2.80;;;14.90;99.90;;;;;;4950473;28;20055;-73
2023/09/13 05:43:46;;;;;;;15.05;2.60;;;14.90;99.90;;;;;;4921146;28;20085;-72
2023/09/13 05:46:12;;;;;;;15.40;2.72;;;14.80;99.90;;;;;;4948492;28;20058;-74
2023/09/13 05:48:38;;;;;;;14.90;2.70;;;14.80;99.90;;;;;;4914184;28;20524;-71
2023/09/13 05:51:05;;;;;;;14.10;2.45;;;14.80;99.90;;;;;;4955791;28;20059;-73
2023/09/13 05:53:31;;;;;;;15.68;2.30;;;14.60;99.90;;;;;;4897272;28;204194;-74
2023/09/13 05:55:57;;;;;;;16.92;2.72;;;14.40;99.90;;;;;;4955278;28;20058;-74
2023/09/13 05:58:23;;;;;;;16.38;2.55;;;14.40;99.90;;;;;;4911265;28;20518;-73
2023/09/13 06:00:51;;;;;;;13.30;2.50;;;14.40;99.90;;;;;;4958345;28;20047;-74
2023/09/13 06:03:18;;;;;;;12.65;2.63;;;14.40;99.90;;;;;;4905806;28;20039;-73
2023/09/13 06:05:51;;;;;;;14.25;2.80;;;14.40;99.90;;;;;;4937264;28;20051;-72
2023/09/13 06:08:17;;;;;;;13.15;2.80;;;14.40;99.90;;;;;;4913360;28;20050;-72
2023/09/13 06:10:45;;;;;;;17.13;3.03;;;14.40;99.90;;;;;;4946839;28;20063;-74
2023/09/13 06:13:11;;;;;;;13.15;2.60;;;14.40;99.90;;;;;;4914731;28;20059;-72
2023/09/13 06:15:37;;;;;;;13.02;2.83;;;14.40;99.90;;;;;;4958062;28;20063;-73
2023/09/13 06:18:04;;;;;;;14.70;2.67;;;14.50;99.90;;;;;;4911947;28;20476;-72
2023/09/13 06:20:30;;;;;;;14.60;2.67;;;14.40;99.90;;;;;;4948517;28;20070;-73
2023/09/13 06:22:57;;;;;;;12.38;2.85;;;14.40;99.90;;;;;;4927941;28;20054;-73
2023/09/13 06:25:23;;;;;;;13.07;2.72;;;14.40;99.90;;;;;;4958752;28;20062;-73
2023/09/13 06:27:49;;;;;;;13.27;2.63;;;14.40;99.90;;;;;;4913600;28;20063;-73
2023/09/13 06:30:15;;;;;;;18.30;3.13;;;14.40;99.90;;;;;;4965054;28;20058;-73
2023/09/13 06:32:43;;;;;;;9.90;2.42;;;14.50;99.90;;;;;;4910731;28;20055;-73
2023/09/13 06:35:11;;;;;;;16.33;3.38;;;14.40;99.90;;;;;;4947631;28;20078;-72
2023/09/13 06:37:38;;;;;;;12.90;2.63;;;14.30;99.90;;;;;;4911381;28;20055;-72
2023/09/13 06:40:04;;;;;;;13.45;2.63;;;14.30;99.90;;;;;;4943453;28;20740;-71
2023/09/13 06:42:31;;;;;;;17.70;3.25;;;14.30;99.90;;;;;;4920998;28;20068;-72
2023/09/13 06:45:00;;;;;;;17.80;3.30;;;14.30;99.90;;;;;;4936579;28;20042;-71
2023/09/13 06:47:28;;;;;;;20.52;3.95;;;14.30;99.90;;;;;;4955915;28;20055;-72
2023/09/13 06:49:56;;;;;;;18.70;3.55;;;14.20;99.90;;;;;;4883365;28;20050;-73
2023/09/13 06:52:22;;;;;;;17.48;3.75;;;14.30;99.90;;;;;;4948880;28;20062;-72
2023/09/13 06:54:48;;;;;;;20.08;4.00;;;14.40;99.90;;;;;;4907630;28;246642;-72
2023/09/13 06:57:16;;;;;;;18.83;3.35;;;14.40;99.90;;;;;;4950210;28;20058;-71
2023/09/13 06:59:42;;;;;;;18.02;3.70;;;14.40;99.90;;;;;;4906628;28;246170;-73
2023/09/13 07:02:11;;;;;;;14.27;3.63;;;14.40;99.90;;;;;;4947207;28;20051;-72
2023/09/13 07:04:38;;;;;;;23.58;4.15;;;14.40;99.90;;;;;;4925434;28;20047;-71
2023/09/13 07:07:05;;;;;;;19.60;4.10;;;14.40;99.90;;;;;;4931584;29;20054;-71
2023/09/13 07:09:31;;;;;;;16.95;4.00;;;14.30;99.90;;;;;;4922906;28;95567;-71
2023/09/13 07:11:57;;;;;;;17.50;4.05;;;14.30;99.90;;;;;;4949557;28;20059;-70
2023/09/13 07:14:23;;;;;;;20.80;3.92;;;14.50;99.90;;;;;;4904507;28;20056;-69
2023/09/13 07:16:49;;;;;;;18.60;3.70;;;14.50;99.90;;;;;;4948888;28;20047;-70
2023/09/13 07:19:15;;;;;;;19.40;3.83;;;14.50;99.90;;;;;;4929026;28;20054;-71
2023/09/13 07:21:41;;;;;;;19.60;3.97;;;14.60;99.90;;;;;;4950712;28;20608;-71
2023/09/13 07:24:09;;;;;;;21.55;3.90;;;14.60;99.90;;;;;;4923529;28;20062;-71
2023/09/13 07:26:35;;;;;;;22.80;3.78;;;14.70;99.90;;;;;;4950058;28;20062;-72
2023/09/13 07:29:02;;;;;;;21.40;3.92;;;14.80;99.90;;;;;;4914400;28;20062;-71
2023/09/13 07:31:28;;;;;;;24.88;4.32;;;14.80;99.90;;;;;;4951597;28;20051;-71
2023/09/13 07:33:54;;;;;;;23.40;4.00;;;14.80;99.90;;;;;;4925555;28;20061;-72
2023/09/13 07:36:23;;;;;;;21.23;3.50;;;14.90;99.90;;;;;;4948101;28;20051;-71
2023/09/13 07:38:49;;;;;;;24.23;4.00;;;14.90;99.90;;;;;;4912032;28;20053;-71
2023/09/13 07:41:15;;;;;;;17.50;3.47;;;15.00;99.90;;;;;;4947019;28;20055;-70
2023/09/13 07:43:41;;;;;;;19.10;3.72;;;15.00;99.90;;;;;;4919282;28;20051;-71
2023/09/13 07:46:07;;;;;;;19.40;3.47;;;15.10;99.90;;;;;;4944031;28;20524;-71
2023/09/13 07:48:33;;;;;;;16.33;3.72;;;15.00;99.90;;;;;;4925232;28;20438;-70
2023/09/13 07:50:59;;;;;;;20.85;3.72;;;15.10;99.90;;;;;;4947948;28;20062;-70
2023/09/13 07:53:25;;;;;;;17.98;2.97;;;15.00;99.90;;;;;;4899806;28;62800;-71
2023/09/13 07:55:52;;;;;;;13.35;2.90;;;15.00;99.90;;;;;;4948902;28;20051;-71
2023/09/13 07:58:18;;;;;;;17.30;3.17;;;15.00;99.90;;;;;;4909978;28;20115;-72
2023/09/13 08:00:45;;;;;;;21.30;3.47;;;15.00;99.90;;;;;;4948081;28;20055;-72
2023/09/13 08:03:11;;;;;;;21.35;3.58;;;15.10;99.90;;;;;;4922539;28;20110;-70
2023/09/13 08:05:37;;;;;;;17.38;3.08;;;15.10;99.90;;;;;;4924620;28;20052;-71
2023/09/13 08:08:04;;;;;;;18.35;3.60;;;15.10;99.90;;;;;;4910343;28;20481;-71
2023/09/13 08:10:30;;;;;;;17.58;3.10;;;15.20;99.90;;;;;;4958899;28;20102;-71
2023/09/13 08:12:56;;;;;;;13.02;2.70;;;15.20;99.90;;;;;;4912949;28;20039;-71
2023/09/13 08:15:22;;;;;;;17.77;2.92;;;15.20;99.90;;;;;;4947557;28;20517;-71
2023/09/13 08:17:48;;;;;;;18.10;3.05;;;15.30;99.90;;;;;;4911225;28;21949;-71
2023/09/13 08:20:14;;;;;;;18.55;2.90;;;15.40;99.90;;;;;;4919547;29;20059;-72
2023/09/13 08:22:40;;;;;;;14.60;2.83;;;15.40;99.90;;;;;;4907876;28;20055;-70
2023/09/13 08:25:10;;;;;;;12.95;2.80;;;15.50;99.90;;;;;;4945940;28;20078;-72
2023/09/13 08:27:36;;;;;;;14.27;2.83;;;15.70;99.90;;;;;;4910107;28;20817;-71
2023/09/13 08:30:03;;;;;;;13.73;2.80;;;15.80;99.90;;;;;;4927697;29;20525;-71
2023/09/13 08:32:32;;;;;;;14.20;2.45;;;15.90;99.90;;;;;;4924839;28;20055;-71
2023/09/13 08:34:58;;;;;;;13.00;2.55;;;16.00;99.90;;;;;;4928400;29;20050;-72
2023/09/13 08:37:24;;;;;;;18.52;2.80;;;16.10;99.90;;;;;;4945549;28;20051;-69
2023/09/13 08:39:51;;;;;;;21.13;3.08;;;16.10;99.90;;;;;;4922375;28;20620;-71
2023/09/13 08:42:17;;;;;;;13.68;2.70;;;16.20;99.90;;;;;;4951336;28;20410;-71
2023/09/13 08:44:45;;;;;;;11.63;2.28;;;16.10;99.90;;;;;;4913712;28;20190;-71
2023/09/13 08:47:12;;;;;;;12.30;2.85;;;16.30;99.90;;;;;;4950153;28;20074;-72
2023/09/13 08:49:42;;;;;;;13.23;2.75;;;16.60;99.90;;;;;;4893270;28;20074;-72
2023/09/13 08:52:09;;;;;;;11.00;2.30;;;16.80;99.90;;;;;;4946145;28;20052;-71
2023/09/13 08:54:37;;;;;;;11.05;2.63;;;16.70;99.90;;;;;;4899865;28;20062;-72
2023/09/13 08:57:04;;;;;;;10.80;2.50;;;16.70;99.90;;;;;;4960737;28;20752;-73
2023/09/13 08:59:30;;;;;;;12.73;2.42;;;16.70;99.90;;;;;;4891278;28;20138;-72
2023/09/13 09:01:57;;;;;;;12.70;2.63;;;16.80;99.90;;;;;;4946715;28;20051;-72
2023/09/13 09:04:24;;;;;;;13.52;2.85;;;16.80;99.90;;;;;;4910986;28;20050;-74
2023/09/13 09:06:51;;;;;;;13.30;2.60;;;16.80;99.90;;;;;;4945873;28;20062;-72
2023/09/13 09:09:20;;;;;;;18.75;2.70;;;16.80;99.90;;;;;;4916549;28;20039;-72
2023/09/13 09:11:56;;;;;;;13.98;2.75;;;17.00;99.90;;;;;;4943200;28;20073;-71
2023/09/13 09:14:23;;;;;;;12.05;2.60;;;17.10;99.90;;;;;;4920724;28;20457;-72
2023/09/13 09:16:52;;;;;;;18.33;2.80;;;17.00;99.90;;;;;;4945754;28;20052;-72
2023/09/13 09:19:19;;;;;;;16.25;2.67;;;16.90;99.90;;;;;;4925548;28;20050;-72
2023/09/13 09:21:45;;;;;;;13.60;3.03;;;16.70;99.90;;;;;;4949318;28;20071;-72
2023/09/13 09:24:11;;;;;;;16.55;2.70;;;16.70;99.90;;;;;;4919051;28;20143;-72
2023/09/13 09:26:37;;;;;;;13.32;2.90;;;16.60;99.90;;;;;;4945425;28;20070;-71
2023/09/13 09:29:32;;;;;;;14.35;2.60;;;16.60;99.90;;;;;;4920718;28;20055;-71
2023/09/13 09:31:59;;;;;;;15.32;2.65;;;17.50;99.90;;;;;;4961454;28;20055;-71
2023/09/13 09:34:32;;;;;;;14.27;2.78;;;18.90;99.90;;;;;;4879097;28;20047;-73
2023/09/13 09:37:09;;;;;;;14.15;2.80;;;20.00;99.90;;;;;;4944011;28;20054;-72
2023/09/13 09:39:42;;;;;;;12.02;2.58;;;20.70;99.90;;;;;;4906345;28;20079;-72
2023/09/13 09:42:15;;;;;;;13.10;2.60;;;20.40;99.90;;;;;;4963030;28;20036;-71
2023/09/13 09:44:41;;;;;;;9.85;2.33;;;21.60;99.90;;;;;;4908560;28;20130;-71
2023/09/13 09:47:14;;;;;;;12.88;2.58;;;22.30;99.90;;;;;;4931625;29;20051;-73
2023/09/13 09:49:44;;;;;;;11.27;2.30;;;21.70;99.90;;;;;;4904725;28;20058;-73
2023/09/13 09:52:11;;;;;;;11.13;2.58;;;20.00;99.90;;;;;;4945933;28;20058;-71
2023/09/13 09:54:38;;;;;;;11.02;2.20;;;19.00;99.90;;;;;;4911432;28;79898;-73
2023/09/13 09:57:05;;;;;;;11.85;2.60;;;18.20;99.90;;;;;;4943056;28;20043;-71
2023/09/13 09:59:33;;;;;;;14.00;2.67;;;17.50;99.90;;;;;;4897353;28;20059;-73
2023/09/13 10:02:01;;;;;;;13.38;2.58;;;17.20;99.90;;;;;;4944491;28;20063;-72
2023/09/13 10:04:27;;;;;;;13.82;2.90;;;17.10;99.90;;;;;;4923727;28;20098;-73
2023/09/13 10:07:03;;;;;;;17.13;2.90;;;17.00;99.90;;;;;;4944560;28;20055;-73
2023/09/13 10:09:40;;;;;;;15.40;2.97;;;16.90;99.90;;;;;;4909990;28;20489;-73
2023/09/13 10:12:10;;;;;;;15.60;3.03;;;16.90;99.90;;;;;;4947910;28;20452;-73
2023/09/13 10:14:38;;;;;;;14.02;2.90;;;16.80;99.90;;;;;;4906630;28;20051;-72
2023/09/13 10:17:05;;;;;;;14.13;2.97;;;16.70;99.90;;;;;;4943698;28;20139;-74
2023/09/13 10:19:33;;;;;;;13.40;2.65;;;16.60;99.90;;;;;;4897836;28;20059;-73
2023/09/13 10:22:00;;;;;;;12.88;2.85;;;16.80;99.90;;;;;;4947042;28;20051;-72
2023/09/13 10:24:34;;;;;;;15.77;3.13;;;16.90;99.90;;;;;;4908565;28;20637;-72
2023/09/13 10:27:07;;;;;;;13.90;2.97;;;17.10;99.90;;;;;;4946273;28;20051;-72
2023/09/13 10:29:51;;;;;;;10.80;2.70;;;17.30;99.90;;;;;;4903817;28;20054;-73
2023/09/13 10:32:20;;;;;;;11.52;2.90;;;17.60;99.90;;;;;;4945863;28;20051;-71
2023/09/13 10:35:08;;;;;;;11.98;2.70;;;17.80;99.90;;;;;;4919825;28;20066;-72
2023/09/13 10:37:46;;;;;;;10.65;2.80;;;17.90;99.90;;;;;;4905038;28;20066;-72
2023/09/13 10:40:55;;;;;;;13.20;2.40;;;18.10;99.90;;;;;;4914674;28;20050;-73
2023/09/13 10:43:22;;;;;;;12.45;2.78;;;18.40;99.90;;;;;;4910288;28;20055;-74
2023/09/13 10:45:49;;;;;;;12.13;2.80;;;18.60;99.90;;;;;;4944295;28;20525;-74
2023/09/13 10:48:17;;;;;;;13.10;3.20;;;19.10;99.90;;;;;;4912148;28;20081;-73
2023/09/13 10:50:43;;;;;;;10.60;2.50;;;20.10;99.90;;;;;;4933061;28;20429;-74
2023/09/13 10:53:11;;;;;;;10.80;2.63;;;20.80;99.90;;;;;;4898820;28;167608;-74
2023/09/13 10:55:38;;;;;;;9.90;2.80;;;20.70;99.90;;;;;;4952248;28;20055;-74
2023/09/13 10:58:06;;;;;;;11.60;2.90;;;20.40;99.90;;;;;;4903505;28;273943;-74
2023/09/13 11:00:33;;;;;;;9.57;2.50;;;20.80;99.90;;;;;;4920363;28;20063;-74
2023/09/13 11:03:04;;;;;;;9.05;2.50;;;21.60;99.90;;;;;;4914217;28;20551;-74
2023/09/13 11:05:31;;;;;;;;;;;21.80;99.60;;;;;;4958414;28;20047;-73
2023/09/13 11:07:57;;;;;;;12.98;3.20;;;21.50;97.50;;;;;;4922280;28;19941;-75
2023/09/13 11:10:31;;;;;;;10.73;2.70;;;21.50;99.90;;;;;;4943616;28;20066;-74
2023/09/13 11:13:11;;;;;;;11.15;2.83;;;22.10;99.90;;;;;;4916216;28;20089;-74
2023/09/13 11:15:49;;;;;;;9.50;2.72;;;21.40;99.50;;;;;;4940269;28;20042;-74
2023/09/13 11:18:16;;;;;;;9.40;2.67;;;20.90;98.00;;;;;;4917219;28;20062;-75
2023/09/13 11:20:44;;;;;;;9.93;2.80;;;21.10;99.90;;;;;;4947196;28;20066;-74
2023/09/13 11:23:15;;;;;;;9.18;2.60;;;21.30;99.80;;;;;;4911942;28;20128;-75
2023/09/13 11:25:46;;;;;;;11.38;2.97;;;21.90;99.90;;;;;;4949597;28;20073;-76
2023/09/13 11:28:31;;;;;;;8.30;2.60;;;22.40;99.40;;;;;;4909757;28;20533;-75
2023/09/13 11:30:59;;;;;;;11.60;2.90;;;22.90;97.40;;;;;;4946122;28;20039;-76
2023/09/13 11:33:29;;;;;;;12.00;3.15;;;23.40;98.60;;;;;;4894576;28;20062;-76
2023/09/13 11:35:57;;;;;;;10.10;2.58;;;23.90;97.20;;;;;;4949052;28;20403;-76
2023/09/13 11:38:25;;;;;;;9.40;2.50;;;24.30;99.20;;;;;;4921227;28;20051;-78
2023/09/13 11:40:55;;;;;;;9.98;2.30;;;24.80;98.00;;;;;;4954299;28;20047;-76
2023/09/13 11:43:24;;;;;;;8.73;2.40;;;24.60;97.40;;;;;;4920737;28;20052;-76
2023/09/13 11:45:54;;;;;;;10.40;2.38;;;24.40;96.90;;;;;;4950863;28;20055;-76
2023/09/13 11:48:26;;;;;;;10.35;2.05;;;24.00;96.70;;;;;;4917224;28;92494;-75
2023/09/13 11:50:52;;;;;;;10.05;2.03;;;23.70;95.90;;;;;;4940747;28;20062;-76
2023/09/13 11:53:28;;;;;;;8.35;2.00;;;24.00;96.20;;;;;;4895813;28;253302;-76
2023/09/13 11:55:58;;;;;;;7.68;1.80;;;23.60;94.60;;;;;;4950153;28;20058;-76
2023/09/13 11:58:46;;;;;;;;;;;23.70;96.60;;;;;;4904290;28;271605;-76
2023/09/13 12:01:12;;;;;;;8.02;1.75;;;23.80;92.30;;;;;;4956960;28;19922;-77
2023/09/13 12:03:39;;;;;;;8.98;1.75;;;24.50;97.60;;;;;;4902521;28;204756;-75
2023/09/13 12:06:06;;;;;;;9.55;1.70;;;24.70;94.20;;;;;;4950566;28;20430;-76
2023/09/13 12:08:38;;;;;;;7.40;1.60;;;24.70;96.30;;;;;;4904324;28;252065;-77
2023/09/13 12:11:10;;;;;;;7.35;1.70;;;24.90;96.40;;;;;;4949201;28;20433;-77
2023/09/13 12:13:47;;;;;;;9.55;1.67;;;23.60;95.30;;;;;;4917721;28;134141;-76
2023/09/13 12:16:14;;;;;;;7.63;1.65;;;22.50;94.90;;;;;;4947607;28;20051;-76
2023/09/13 12:18:42;;;;;;;9.98;1.98;;;22.00;94.60;;;;;;4928247;28;212164;-76
2023/09/13 12:21:10;;;;;;;7.38;1.55;;;21.80;95.40;;;;;;4951587;28;20051;-78
2023/09/13 12:23:41;;;;;;;7.95;1.63;;;22.00;96.20;;;;;;4909157;28;20070;-77
2023/09/13 12:26:10;;;;;;;9.68;1.67;;;22.40;95.50;;;;;;4944964;28;20525;-77
2023/09/13 12:28:40;;;;;;;10.15;1.90;;;22.90;95.10;;;;;;4920918;28;124210;-77
2023/09/13 12:31:12;;;;;;;8.77;1.83;;;22.90;94.40;;;;;;4946496;28;20051;-76
2023/09/13 12:33:43;;;;;;;10.55;2.17;;;22.40;96.60;;;;;;4924362;28;37650;-76
2023/09/13 12:36:11;;;;;;;9.88;1.90;;;21.50;95.60;;;;;;4957319;28;20056;-76
2023/09/13 12:38:42;;;;;;;12.43;1.90;;;20.90;96.20;;;;;;4926452;28;50679;-77
2023/09/13 12:41:10;;;;;;;10.55;1.83;;;20.20;97.40;;;;;;4947535;28;20055;-76
2023/09/13 12:43:39;;;;;;;10.82;1.77;;;19.70;98.30;;;;;;4911287;28;47259;-77